createdAt,value
2019-03-18T00:00:54.662Z,0.60
2019-03-18T00:03:25.100Z,0.70
2019-03-18T00:05:55.505Z,0.60
2019-03-18T00:08:25.866Z,0.65
2019-03-18T00:10:56.221Z,0.60
2019-03-18T00:13:26.589Z,0.60
2019-03-18T00:15:57.009Z,0.60
2019-03-18T00:18:27.378Z,0.60
2019-03-18T00:20:57.774Z,0.90
2019-03-18T00:23:28.127Z,0.65
2019-03-18T00:25:58.529Z,0.50
2019-03-18T00:28:28.900Z,0.75
2019-03-18T00:30:59.262Z,1.20
2019-03-18T00:33:29.618Z,0.70
2019-03-18T00:35:59.986Z,0.90
2019-03-18T00:38:30.375Z,0.88
2019-03-18T00:41:00.756Z,0.60
2019-03-18T00:43:31.116Z,0.60
2019-03-18T00:46:01.531Z,0.70
2019-03-18T00:48:31.869Z,0.80
2019-03-18T00:51:02.241Z,0.70
2019-03-18T00:53:32.600Z,0.60
2019-03-18T00:56:02.978Z,0.90
2019-03-18T00:58:33.379Z,0.65
2019-03-18T01:01:03.732Z,0.80
2019-03-18T01:03:34.094Z,0.72
2019-03-18T01:06:04.461Z,0.70
2019-03-18T01:08:34.869Z,0.70
2019-03-18T01:11:06.114Z,0.65
2019-03-18T01:13:36.541Z,0.65
2019-03-18T01:16:07.208Z,0.60
2019-03-18T01:18:37.610Z,0.68
2019-03-18T01:21:07.984Z,0.78
2019-03-18T01:23:38.386Z,0.80
2019-03-18T01:26:08.727Z,0.70
2019-03-18T01:28:39.124Z,0.70
2019-03-18T01:31:09.473Z,0.70
2019-03-18T01:33:39.833Z,0.70
2019-03-18T01:36:10.219Z,0.60
2019-03-18T01:38:40.579Z,0.70
2019-03-18T01:41:10.904Z,0.80
2019-03-18T01:43:41.262Z,0.70
2019-03-18T01:46:11.646Z,0.80
2019-03-18T01:48:42.025Z,1.12
2019-03-18T01:51:12.377Z,0.85
2019-03-18T01:53:42.751Z,0.80
2019-03-18T01:56:13.094Z,1.30
2019-03-18T01:58:43.479Z,0.80
2019-03-18T02:01:13.845Z,0.80
2019-03-18T02:03:44.219Z,0.70
2019-03-18T02:06:14.659Z,0.75
2019-03-18T02:08:45.093Z,0.80
2019-03-18T02:11:15.449Z,0.80
2019-03-18T02:13:45.787Z,0.70
2019-03-18T02:16:16.165Z,0.88
2019-03-18T02:18:46.513Z,0.98
2019-03-18T02:21:16.956Z,0.80
2019-03-18T02:23:47.324Z,0.98
2019-03-18T02:26:17.712Z,0.70
2019-03-18T02:28:48.113Z,0.80
2019-03-18T02:31:18.570Z,0.80
2019-03-18T02:33:48.904Z,0.80
2019-03-18T02:36:19.340Z,0.80
2019-03-18T02:38:49.758Z,0.90
2019-03-18T02:41:20.249Z,0.90
2019-03-18T02:43:50.624Z,1.20
2019-03-18T02:46:21.081Z,1.00
2019-03-18T02:48:51.446Z,0.80
2019-03-18T02:51:21.816Z,1.00
2019-03-18T02:53:52.162Z,1.20
2019-03-18T02:56:22.604Z,1.00
2019-03-18T02:58:52.966Z,1.05
2019-03-18T03:01:23.352Z,1.05
2019-03-18T03:03:53.710Z,1.00
2019-03-18T03:06:24.125Z,1.00
2019-03-18T03:08:54.570Z,1.50
2019-03-18T03:11:24.967Z,1.10
2019-03-18T03:13:55.339Z,1.10
2019-03-18T03:16:27.582Z,1.10
2019-03-18T03:18:57.893Z,1.60
2019-03-18T03:21:28.267Z,1.30
2019-03-18T03:23:58.635Z,1.00
2019-03-18T03:26:29.048Z,1.10
2019-03-18T03:28:59.505Z,1.12
2019-03-18T03:31:29.948Z,1.17
2019-03-18T03:34:00.406Z,1.20
2019-03-18T03:36:30.887Z,1.00
2019-03-18T03:39:01.236Z,1.12
2019-03-18T03:41:32.247Z,1.00
2019-03-18T03:44:02.705Z,1.40
2019-03-18T03:46:42.836Z,1.00
2019-03-18T03:49:05.205Z,1.00
2019-03-18T03:51:35.604Z,1.22
2019-03-18T03:54:06.000Z,1.00
2019-03-18T03:56:36.358Z,1.30
2019-03-18T03:59:06.738Z,1.17
2019-03-18T04:01:37.070Z,1.00
2019-03-18T04:04:07.471Z,1.00
2019-03-18T04:06:37.828Z,1.07
2019-03-18T04:09:08.297Z,0.98
2019-03-18T04:11:38.649Z,0.90
2019-03-18T04:14:09.027Z,1.10
2019-03-18T04:16:39.542Z,1.10
2019-03-18T04:19:09.923Z,1.12
2019-03-18T04:21:40.291Z,1.40
2019-03-18T04:24:10.776Z,1.00
2019-03-18T04:26:41.215Z,1.17
2019-03-18T04:29:11.698Z,1.10
2019-03-18T04:31:42.060Z,1.20
2019-03-18T04:34:12.447Z,1.00
2019-03-18T04:36:42.824Z,0.95
2019-03-18T04:39:13.196Z,1.00
2019-03-18T04:41:43.569Z,1.10
2019-03-18T04:44:13.929Z,1.22
2019-03-18T04:46:44.316Z,0.95
2019-03-18T04:49:14.705Z,0.90
2019-03-18T04:51:45.065Z,1.10
2019-03-18T04:54:15.449Z,0.90
2019-03-18T04:56:45.845Z,1.12
2019-03-18T04:59:16.202Z,1.40
2019-03-18T05:01:46.574Z,1.00
2019-03-18T05:04:17.020Z,1.10
2019-03-18T05:06:47.463Z,1.02
2019-03-18T05:09:17.815Z,1.10
2019-03-18T05:11:48.234Z,1.05
2019-03-18T05:14:18.578Z,0.88
2019-03-18T05:16:48.956Z,0.90
2019-03-18T05:19:19.366Z,1.00
2019-03-18T05:21:49.773Z,1.05
2019-03-18T05:24:20.137Z,1.07
2019-03-18T05:26:50.553Z,0.90
2019-03-18T05:29:20.960Z,1.10
2019-03-18T05:31:51.346Z,1.90
2019-03-18T05:34:21.701Z,1.10
2019-03-18T05:36:52.235Z,1.10
2019-03-18T05:39:22.713Z,1.32
2019-03-18T05:41:53.091Z,1.10
2019-03-18T05:44:23.469Z,0.80
2019-03-18T05:46:53.922Z,1.10
2019-03-18T05:49:24.311Z,0.90
2019-03-18T05:51:54.715Z,0.90
2019-03-18T05:54:25.054Z,1.00
2019-03-18T05:56:55.460Z,0.90
2019-03-18T05:59:25.821Z,0.90
2019-03-18T06:01:56.475Z,1.10
2019-03-18T06:04:30.219Z,1.00
2019-03-18T06:07:00.607Z,1.00
2019-03-18T06:09:31.294Z,1.20
2019-03-18T06:12:01.703Z,1.20
2019-03-18T06:14:32.093Z,0.90
2019-03-18T06:17:02.537Z,1.25
2019-03-18T06:19:32.962Z,1.00
2019-03-18T06:22:03.361Z,0.90
2019-03-18T06:24:33.849Z,1.00
2019-03-18T06:27:04.284Z,0.90
2019-03-18T06:29:34.674Z,0.90
2019-03-18T06:32:05.049Z,0.90
2019-03-18T06:34:35.437Z,1.10
2019-03-18T06:37:05.809Z,0.80
2019-03-18T06:39:36.214Z,1.00
2019-03-18T06:42:06.625Z,1.10
2019-03-18T06:44:37.028Z,1.07
2019-03-18T06:47:07.394Z,0.90
2019-03-18T06:49:37.752Z,0.95
2019-03-18T06:52:08.118Z,0.95
2019-03-18T06:54:38.504Z,1.30
2019-03-18T06:57:08.874Z,1.00
2019-03-18T06:59:39.266Z,0.90
2019-03-18T07:02:09.615Z,1.10
2019-03-18T07:04:39.994Z,0.95
2019-03-18T07:07:10.368Z,0.98
2019-03-18T07:09:40.771Z,1.00
2019-03-18T07:12:11.172Z,1.10
2019-03-18T07:14:41.602Z,0.95
2019-03-18T07:17:11.986Z,0.90
2019-03-18T07:19:42.359Z,1.00
2019-03-18T07:22:12.739Z,1.27
2019-03-18T07:24:43.099Z,0.90
2019-03-18T07:27:17.976Z,0.82
2019-03-18T07:29:48.373Z,1.10
2019-03-18T07:32:18.846Z,1.00
2019-03-18T07:34:49.194Z,0.90
2019-03-18T07:37:19.605Z,1.10
2019-03-18T07:39:49.982Z,1.02
2019-03-18T07:42:20.403Z,0.93
2019-03-18T07:44:50.793Z,0.88
2019-03-18T07:47:21.368Z,1.00
2019-03-18T07:49:51.814Z,0.80
2019-03-18T07:52:22.198Z,1.22
2019-03-18T07:54:52.600Z,1.00
2019-03-18T07:57:22.985Z,1.10
2019-03-18T07:59:53.349Z,1.07
2019-03-18T08:02:23.858Z,1.00
2019-03-18T08:04:54.263Z,1.10
2019-03-18T08:07:24.683Z,1.00
2019-03-18T08:09:55.123Z,1.05
2019-03-18T08:12:25.620Z,1.00
2019-03-18T08:14:55.998Z,1.00
2019-03-18T08:17:26.394Z,0.95
2019-03-18T08:20:04.325Z,0.90
2019-03-18T08:22:34.739Z,1.00
2019-03-18T08:25:05.225Z,0.98
2019-03-18T08:27:35.626Z,1.30
2019-03-18T08:30:06.234Z,1.00
2019-03-18T08:32:36.624Z,1.30
2019-03-18T08:35:07.074Z,1.00
2019-03-18T08:37:37.443Z,0.90
2019-03-18T08:40:10.654Z,0.90
2019-03-18T08:42:41.033Z,0.80
2019-03-18T08:45:11.540Z,0.90
2019-03-18T08:47:41.901Z,1.25
2019-03-18T08:50:12.822Z,0.90
2019-03-18T08:52:43.423Z,0.90
2019-03-18T08:55:13.931Z,1.20
2019-03-18T08:57:44.286Z,0.90
2019-03-18T09:00:14.783Z,1.10
2019-03-18T09:02:45.143Z,1.10
2019-03-18T09:05:15.524Z,0.93
2019-03-18T09:07:45.875Z,1.12
2019-03-18T09:10:16.253Z,1.10
2019-03-18T09:12:46.635Z,1.05
2019-03-18T09:15:17.027Z,1.55
2019-03-18T09:17:47.383Z,1.10
2019-03-18T09:20:17.742Z,1.00
2019-03-18T09:22:48.122Z,0.80
2019-03-18T09:25:18.520Z,0.72
2019-03-18T09:27:48.956Z,0.90
2019-03-18T09:30:19.718Z,0.82
2019-03-18T09:32:50.069Z,1.00
2019-03-18T09:35:20.455Z,1.00
2019-03-18T09:37:50.824Z,0.90
2019-03-18T09:40:21.220Z,1.20
2019-03-18T09:42:51.608Z,1.10
2019-03-18T09:45:21.959Z,1.92
2019-03-18T09:47:52.329Z,0.90
2019-03-18T09:50:22.977Z,0.93
2019-03-18T09:52:53.359Z,0.98
2019-03-18T09:55:23.742Z,0.90
2019-03-18T09:57:57.358Z,0.70
2019-03-18T10:00:27.796Z,1.00
2019-03-18T10:02:58.145Z,1.07
2019-03-18T10:05:28.532Z,0.90
2019-03-18T10:07:58.902Z,0.80
2019-03-18T10:10:29.298Z,0.80
2019-03-18T10:12:59.755Z,0.62
2019-03-18T10:15:30.175Z,0.80
2019-03-18T10:18:00.562Z,0.70
2019-03-18T10:20:30.905Z,0.82
2019-03-18T10:23:03.027Z,0.80
2019-03-18T10:25:33.344Z,0.70
2019-03-18T10:28:03.770Z,0.80
2019-03-18T10:30:34.130Z,0.70
2019-03-18T10:33:04.591Z,0.65
2019-03-18T10:35:35.067Z,0.60
2019-03-18T10:38:05.505Z,0.90
2019-03-18T10:40:35.884Z,0.60
2019-03-18T10:43:06.542Z,0.70
2019-03-18T10:45:36.898Z,0.60
2019-03-18T10:48:07.293Z,0.50
2019-03-18T10:50:37.709Z,0.60
2019-03-18T10:53:08.068Z,0.60
2019-03-18T10:55:38.802Z,0.62
2019-03-18T10:58:09.231Z,0.50
2019-03-18T11:00:39.569Z,0.50
2019-03-18T11:03:09.963Z,0.60
2019-03-18T11:05:40.343Z,0.85
2019-03-18T11:08:10.721Z,0.55
2019-03-18T11:10:41.227Z,0.50
2019-03-18T11:13:11.640Z,0.50
2019-03-18T11:15:42.057Z,0.50
2019-03-18T11:18:12.438Z,0.62
2019-03-18T11:20:42.856Z,0.60
2019-03-18T11:23:13.226Z,0.70
2019-03-18T11:25:43.667Z,0.60
2019-03-18T11:28:14.108Z,0.50
2019-03-18T11:30:44.486Z,0.72
2019-03-18T11:33:14.857Z,0.60
2019-03-18T11:35:45.243Z,0.60
2019-03-18T11:38:15.698Z,0.68
2019-03-18T11:40:46.199Z,0.70
2019-03-18T11:43:16.615Z,0.60
2019-03-18T11:45:47.078Z,0.60
2019-03-18T11:48:17.433Z,0.60
2019-03-18T11:50:48.027Z,0.60
2019-03-18T11:53:18.416Z,0.70
2019-03-18T11:55:48.811Z,0.70
2019-03-18T11:58:19.268Z,1.07
2019-03-18T12:00:49.658Z,0.70
2019-03-18T12:03:20.080Z,0.85
2019-03-18T12:05:50.489Z,0.70
2019-03-18T12:08:20.834Z,0.62
2019-03-18T12:10:51.274Z,0.60
2019-03-18T12:13:21.668Z,0.60
2019-03-18T12:15:52.063Z,0.63
2019-03-18T12:18:22.474Z,0.50
2019-03-18T12:20:52.909Z,0.60
2019-03-18T12:23:23.288Z,0.80
2019-03-18T12:25:53.689Z,1.05
2019-03-18T12:28:24.110Z,0.50
2019-03-18T12:30:54.541Z,1.10
2019-03-18T12:33:24.946Z,1.13
2019-03-18T12:35:55.446Z,1.42
2019-03-18T12:38:25.810Z,1.10
2019-03-18T12:40:56.214Z,0.50
2019-03-18T12:43:26.602Z,0.63
2019-03-18T12:45:56.994Z,0.70
2019-03-18T12:48:27.465Z,0.60
2019-03-18T12:50:57.843Z,0.70
2019-03-18T12:53:28.221Z,0.57
2019-03-18T12:55:58.644Z,0.70
2019-03-18T12:58:29.084Z,0.80
2019-03-18T13:01:11.908Z,1.17
2019-03-18T13:03:31.585Z,0.60
2019-03-18T13:06:01.972Z,0.80
2019-03-18T13:08:33.681Z,0.70
2019-03-18T13:11:04.041Z,0.60
2019-03-18T13:13:34.448Z,0.70
2019-03-18T13:16:04.846Z,0.77
2019-03-18T13:18:35.242Z,0.60
2019-03-18T13:21:08.013Z,0.70
2019-03-18T13:23:37.717Z,0.63
2019-03-18T13:26:08.105Z,0.70
2019-03-18T13:28:38.558Z,0.70
2019-03-18T13:31:08.899Z,0.70
2019-03-18T13:33:41.509Z,0.60
2019-03-18T13:36:11.338Z,0.62
2019-03-18T13:38:41.759Z,0.60
2019-03-18T13:41:12.125Z,0.75
2019-03-18T13:43:42.512Z,0.80
2019-03-18T13:46:13.039Z,0.70
2019-03-18T13:48:43.426Z,0.50
2019-03-18T13:51:20.881Z,0.60
2019-03-18T13:53:45.851Z,0.60
2019-03-18T13:56:16.187Z,0.50
2019-03-18T13:58:46.611Z,0.60
2019-03-18T14:01:16.993Z,0.60
2019-03-18T14:03:47.371Z,0.60
2019-03-18T14:06:17.741Z,0.72
2019-03-18T14:08:48.279Z,0.60
2019-03-18T14:11:18.643Z,0.70
2019-03-18T14:13:49.225Z,0.70
2019-03-18T14:16:19.610Z,0.60
2019-03-18T14:18:49.951Z,0.70
2019-03-18T14:21:39.394Z,0.60
2019-03-18T14:24:09.745Z,0.60
2019-03-18T14:26:40.172Z,0.70
2019-03-18T14:29:10.600Z,0.60
2019-03-18T14:31:43.395Z,0.70
2019-03-18T14:34:13.011Z,0.78
2019-03-18T14:36:43.381Z,0.50
2019-03-18T14:39:13.715Z,0.60
2019-03-18T14:41:44.091Z,0.70
2019-03-18T14:44:14.432Z,0.60
2019-03-18T14:46:44.808Z,0.60
2019-03-18T14:49:15.174Z,0.40
2019-03-18T14:51:46.276Z,0.60
2019-03-18T14:54:16.789Z,0.53
2019-03-18T14:56:47.165Z,1.17
2019-03-18T14:59:17.522Z,1.12
2019-03-18T15:01:47.912Z,0.60
2019-03-18T15:04:18.255Z,0.60
2019-03-18T15:06:48.621Z,0.68
2019-03-18T15:09:18.974Z,0.68
2019-03-18T15:11:49.369Z,0.70
2019-03-18T15:14:19.732Z,0.68
2019-03-18T15:16:50.132Z,0.85
2019-03-18T15:19:20.581Z,0.80
2019-03-18T15:21:58.507Z,1.10
2019-03-18T15:24:22.998Z,0.70
2019-03-18T15:26:53.372Z,0.90
2019-03-18T15:29:23.763Z,0.90
2019-03-18T15:31:54.198Z,0.80
2019-03-18T15:34:24.565Z,2.62
2019-03-18T15:36:54.937Z,1.05
2019-03-18T15:39:25.269Z,0.80
2019-03-18T15:41:55.625Z,3.17
2019-03-18T15:44:26.002Z,2.98
2019-03-18T15:46:56.362Z,1.27
2019-03-18T15:49:26.730Z,0.93
2019-03-18T15:51:57.074Z,1.00
2019-03-18T15:54:27.496Z,0.90
2019-03-18T15:56:57.846Z,0.90
2019-03-18T15:59:28.278Z,0.95
2019-03-18T16:01:58.668Z,0.90
2019-03-18T16:04:29.137Z,0.90
2019-03-18T16:06:59.495Z,0.80
2019-03-18T16:09:29.882Z,2.10
2019-03-18T16:12:00.272Z,1.40
2019-03-18T16:14:30.730Z,1.52
2019-03-18T16:17:02.258Z,0.93
2019-03-18T16:19:32.857Z,0.80
2019-03-18T16:22:03.229Z,0.80
2019-03-18T16:24:33.614Z,0.90
2019-03-18T16:27:03.953Z,1.10
2019-03-18T16:29:34.361Z,1.00
2019-03-18T16:32:11.308Z,2.95
2019-03-18T16:34:36.991Z,0.80
2019-03-18T16:37:07.390Z,0.60
2019-03-18T16:39:37.804Z,0.80
2019-03-18T16:42:08.159Z,0.80
2019-03-18T16:44:38.554Z,0.78
2019-03-18T16:47:08.918Z,0.78
2019-03-18T16:49:39.306Z,1.40
2019-03-18T16:52:09.669Z,0.70
2019-03-18T16:54:40.070Z,1.10
2019-03-18T16:57:10.470Z,0.90
2019-03-18T16:59:40.877Z,1.00
2019-03-18T17:02:11.270Z,0.85
2019-03-18T17:04:41.783Z,1.05
2019-03-18T17:07:12.194Z,0.90
2019-03-18T17:09:42.550Z,1.00
2019-03-18T17:12:12.930Z,1.00
2019-03-18T17:14:43.325Z,0.88
2019-03-18T17:17:13.711Z,0.90
2019-03-18T17:19:44.084Z,0.93
2019-03-18T17:22:14.481Z,0.80
2019-03-18T17:24:44.942Z,0.90
2019-03-18T17:27:16.558Z,1.10
2019-03-18T17:29:47.117Z,0.80
2019-03-18T17:32:17.502Z,2.00
2019-03-18T17:34:47.882Z,1.67
2019-03-18T17:37:18.328Z,2.02
2019-03-18T17:39:48.700Z,1.32
2019-03-18T17:42:19.098Z,1.32
2019-03-18T17:44:49.501Z,1.20
2019-03-18T17:47:19.950Z,1.00
2019-03-18T17:49:50.341Z,0.90
2019-03-18T17:52:20.735Z,0.80
2019-03-18T17:54:51.114Z,0.93
2019-03-18T17:57:21.499Z,1.00
2019-03-18T17:59:51.847Z,1.00
2019-03-18T18:02:22.245Z,0.90
2019-03-18T18:05:02.400Z,1.20
2019-03-18T18:07:24.695Z,1.20
2019-03-18T18:09:55.079Z,1.10
2019-03-18T18:12:25.413Z,1.20
2019-03-18T18:14:55.789Z,1.00
2019-03-18T18:17:28.902Z,1.37
2019-03-18T18:19:59.293Z,1.00
2019-03-18T18:22:29.645Z,1.50
2019-03-18T18:25:00.053Z,1.10
2019-03-18T18:27:30.405Z,1.62
2019-03-18T18:30:00.835Z,1.77
2019-03-18T18:32:31.230Z,1.70
2019-03-18T18:35:01.606Z,1.85
2019-03-18T18:37:32.001Z,1.60
2019-03-18T18:40:04.736Z,2.40
2019-03-18T18:42:34.530Z,1.95
2019-03-18T18:45:05.237Z,1.98
2019-03-18T18:47:35.595Z,1.60
2019-03-18T18:50:06.829Z,4.00
2019-03-18T18:52:37.189Z,2.87
2019-03-18T18:55:07.654Z,2.75
2019-03-18T18:57:38.118Z,2.60
2019-03-18T19:00:11.101Z,3.25
2019-03-18T19:02:41.470Z,3.45
2019-03-18T19:05:12.531Z,3.60
2019-03-18T19:07:42.898Z,2.10
2019-03-18T19:10:13.554Z,2.10
2019-03-18T19:12:43.985Z,2.17
2019-03-18T19:15:18.973Z,2.47
2019-03-18T19:17:49.336Z,2.70
2019-03-18T19:20:19.815Z,2.52
2019-03-18T19:22:50.261Z,2.12
2019-03-18T19:25:20.641Z,1.45
2019-03-18T19:27:51.013Z,1.82
2019-03-18T19:30:21.476Z,1.60
2019-03-18T19:32:51.944Z,1.65
2019-03-18T19:35:22.366Z,1.40
2019-03-18T19:37:52.772Z,1.45
2019-03-18T19:40:23.144Z,1.45
2019-03-18T19:42:53.519Z,1.70
2019-03-18T19:45:23.887Z,1.65
2019-03-18T19:47:54.312Z,1.82
2019-03-18T19:50:24.715Z,1.55
2019-03-18T19:52:55.117Z,1.85
2019-03-18T19:55:25.481Z,2.00
2019-03-18T19:57:55.913Z,1.67
2019-03-18T20:00:26.357Z,1.50
2019-03-18T20:02:56.757Z,1.92
2019-03-18T20:05:27.138Z,2.25
2019-03-18T20:07:57.573Z,1.60
2019-03-18T20:10:28.012Z,2.20
2019-03-18T20:12:58.457Z,2.00
2019-03-18T20:15:28.889Z,1.90
2019-03-18T20:17:59.354Z,2.00
2019-03-18T20:20:29.749Z,1.77
2019-03-18T20:23:00.174Z,2.00
2019-03-18T20:25:30.581Z,2.12
2019-03-18T20:28:00.993Z,2.25
2019-03-18T20:30:31.422Z,3.15
2019-03-18T20:33:01.914Z,3.20
2019-03-18T20:35:32.279Z,5.12
2019-03-18T20:38:02.698Z,2.33
2019-03-18T20:40:33.050Z,2.45
2019-03-18T20:43:03.430Z,2.17
2019-03-18T20:45:33.867Z,2.20
2019-03-18T20:48:04.285Z,1.70
2019-03-18T20:50:34.818Z,2.25
2019-03-18T20:53:05.350Z,1.50
2019-03-18T20:55:35.863Z,2.08
2019-03-18T20:58:06.285Z,1.67
2019-03-18T21:00:36.797Z,2.15
2019-03-18T21:03:07.176Z,2.90
2019-03-18T21:05:37.646Z,2.60
2019-03-18T21:08:08.030Z,2.65
2019-03-18T21:10:38.452Z,2.55
2019-03-18T21:13:08.899Z,9.58
2019-03-18T21:15:39.328Z,7.87
2019-03-18T21:18:09.732Z,10.30
2019-03-18T21:20:40.145Z,3.22
2019-03-18T21:23:10.975Z,3.35
2019-03-18T21:25:41.371Z,3.65
2019-03-18T21:28:11.750Z,3.83
2019-03-18T21:30:42.182Z,3.95
2019-03-18T21:33:12.665Z,4.80
2019-03-18T21:35:43.283Z,8.30
2019-03-18T21:38:13.623Z,7.33
2019-03-18T21:40:44.022Z,6.62
2019-03-18T21:43:14.394Z,4.42
2019-03-18T21:45:44.793Z,4.58
2019-03-18T21:48:15.174Z,3.90
2019-03-18T21:50:45.585Z,4.60
2019-03-18T21:53:15.924Z,4.92
2019-03-18T21:55:46.361Z,6.87
2019-03-18T21:58:16.741Z,6.85
2019-03-18T22:00:47.127Z,5.90
2019-03-18T22:03:17.545Z,5.75
2019-03-18T22:05:47.971Z,5.80
2019-03-18T22:08:19.271Z,6.45
2019-03-18T22:10:49.638Z,5.78
2019-03-18T22:13:20.007Z,5.30
2019-03-18T22:15:50.414Z,5.65
2019-03-18T22:18:20.825Z,5.35
2019-03-18T22:20:51.183Z,5.45
2019-03-18T22:23:21.585Z,6.53
2019-03-18T22:25:51.952Z,4.97
2019-03-18T22:28:22.349Z,5.60
2019-03-18T22:30:52.789Z,5.22
2019-03-18T22:33:23.346Z,4.67
2019-03-18T22:35:53.897Z,4.33
2019-03-18T22:38:24.291Z,4.58
2019-03-18T22:40:54.656Z,5.28
2019-03-18T22:43:25.119Z,6.25
2019-03-18T22:45:55.438Z,5.40
2019-03-18T22:48:25.821Z,5.55
2019-03-18T22:50:56.173Z,5.25
2019-03-18T22:53:26.558Z,4.05
2019-03-18T22:55:56.923Z,3.55
2019-03-18T22:58:27.448Z,3.10
2019-03-18T23:01:11.927Z,3.83
2019-03-18T23:03:42.319Z,3.10
2019-03-18T23:06:12.653Z,3.45
2019-03-18T23:08:43.034Z,2.70
2019-03-18T23:11:13.471Z,3.60
2019-03-18T23:13:43.851Z,3.30
2019-03-18T23:16:14.342Z,3.65
2019-03-18T23:18:44.729Z,3.15
2019-03-18T23:21:15.173Z,3.75
2019-03-18T23:23:45.542Z,4.30
2019-03-18T23:26:15.935Z,3.37
2019-03-18T23:28:46.270Z,3.42
2019-03-18T23:31:16.695Z,6.10
2019-03-18T23:33:47.051Z,4.35
2019-03-18T23:36:17.492Z,4.67
2019-03-18T23:38:47.936Z,4.30
2019-03-18T23:41:18.355Z,4.08
2019-03-18T23:43:48.766Z,3.52
2019-03-18T23:46:19.707Z,4.05
2019-03-18T23:48:50.229Z,4.53
2019-03-18T23:51:20.599Z,5.20
2019-03-18T23:53:50.976Z,5.33
2019-03-18T23:56:21.402Z,4.53
2019-03-18T23:58:51.771Z,4.00
